createdAt,value
2018-01-17T00:00:06.827Z,91.66
2018-01-17T00:01:07.101Z,91.19
2018-01-17T00:02:06.845Z,91.47
2018-01-17T00:03:06.880Z,91.28
2018-01-17T00:04:07.205Z,91.57
2018-01-17T00:05:06.910Z,91.38
2018-01-17T00:06:07.181Z,91.38
2018-01-17T00:07:07.195Z,91.57
2018-01-17T00:08:07.210Z,91.09
2018-01-17T00:09:06.965Z,91.28
2018-01-17T00:10:07.237Z,91.66
2018-01-17T00:11:06.997Z,92.04
2018-01-17T00:12:07.266Z,91.47
2018-01-17T00:13:07.278Z,91.28
2018-01-17T00:14:07.265Z,91.47
2018-01-17T00:15:07.027Z,91.28
2018-01-17T00:16:07.301Z,91.09
2018-01-17T00:17:07.054Z,91.19
2018-01-17T00:18:07.070Z,91.19
2018-01-17T00:19:07.389Z,91.28
2018-01-17T00:20:07.345Z,91.57
2018-01-17T00:21:07.361Z,91.19
2018-01-17T00:22:07.378Z,91.19
2018-01-17T00:23:07.454Z,91.09
2018-01-17T00:24:07.404Z,91
2018-01-17T00:25:07.416Z,90.91
2018-01-17T00:26:07.431Z,91.57
2018-01-17T00:27:07.195Z,91.76
2018-01-17T00:28:07.207Z,91.76
2018-01-17T00:29:07.222Z,91.38
2018-01-17T00:30:07.235Z,91.09
2018-01-17T00:31:07.248Z,91.19
2018-01-17T00:32:07.518Z,91.66
2018-01-17T00:33:07.530Z,91.38
2018-01-17T00:34:07.596Z,91.57
2018-01-17T00:35:07.304Z,91.38
2018-01-17T00:36:07.571Z,91.47
2018-01-17T00:37:07.582Z,91.66
2018-01-17T00:38:07.600Z,91.38
2018-01-17T00:39:07.619Z,91.38
2018-01-17T00:40:07.630Z,91.19
2018-01-17T00:41:07.644Z,91.76
2018-01-17T00:42:07.658Z,91.57
2018-01-17T00:43:07.417Z,91.76
2018-01-17T00:44:07.734Z,91.28
2018-01-17T00:45:07.700Z,91.85
2018-01-17T00:46:07.458Z,91.38
2018-01-17T00:47:07.472Z,91.85
2018-01-17T00:48:07.486Z,91.47
2018-01-17T00:49:07.803Z,91.57
2018-01-17T00:50:07.522Z,91.28
2018-01-17T00:51:07.780Z,91.28
2018-01-17T00:52:07.541Z,91.57
2018-01-17T00:53:07.875Z,91.85
2018-01-17T00:54:07.820Z,91.38
2018-01-17T00:55:07.835Z,91.66
2018-01-17T00:56:07.599Z,91.57
2018-01-17T00:57:07.866Z,91.38
2018-01-17T00:58:07.876Z,91.57
2018-01-17T00:59:07.890Z,91.19
2018-01-17T01:00:07.653Z,91.28
2018-01-17T01:01:07.916Z,91.57
2018-01-17T01:02:07.932Z,91.38
2018-01-17T01:03:07.947Z,91.76
2018-01-17T01:04:07.709Z,91.38
2018-01-17T01:05:07.971Z,91.09
2018-01-17T01:06:07.886Z,91.38
2018-01-17T01:07:08.008Z,91.38
2018-01-17T01:08:07.762Z,90.81
2018-01-17T01:09:07.782Z,91.57
2018-01-17T01:10:08.042Z,91.47
2018-01-17T01:11:08.055Z,90.91
2018-01-17T01:12:08.069Z,91.95
2018-01-17T01:13:08.086Z,91.28
2018-01-17T01:14:08.098Z,91.47
2018-01-17T01:15:08.111Z,91.57
2018-01-17T01:16:08.124Z,91.28
2018-01-17T01:17:08.142Z,91
2018-01-17T01:18:07.904Z,91.57
2018-01-17T01:19:07.914Z,91.57
2018-01-17T01:20:07.925Z,91.09
2018-01-17T01:21:08.244Z,91.09
2018-01-17T01:22:07.960Z,90.91
2018-01-17T01:23:08.222Z,91.38
2018-01-17T01:24:07.982Z,91
2018-01-17T01:25:07.997Z,91.57
2018-01-17T01:26:08.008Z,91.76
2018-01-17T01:27:08.024Z,91.76
2018-01-17T01:28:08.290Z,91.38
2018-01-17T01:29:08.305Z,91.19
2018-01-17T01:30:08.089Z,91.47
2018-01-17T01:31:08.358Z,91.38
2018-01-17T01:32:08.372Z,91.28
2018-01-17T01:33:08.386Z,91
2018-01-17T01:34:08.404Z,91.47
2018-01-17T01:35:08.156Z,91.76
2018-01-17T01:36:08.219Z,92.14
2018-01-17T01:37:08.182Z,91.76
2018-01-17T01:38:08.564Z,92.14
2018-01-17T01:39:08.435Z,91.76
2018-01-17T01:40:08.201Z,91.85
2018-01-17T01:41:08.213Z,91.76
2018-01-17T01:42:08.252Z,91.57
2018-01-17T01:43:08.267Z,91.66
2018-01-17T01:44:08.535Z,91.38
2018-01-17T01:45:08.553Z,91.76
2018-01-17T01:46:08.309Z,92.04
2018-01-17T01:47:08.616Z,92.14
2018-01-17T01:48:08.335Z,91.71
2018-01-17T01:49:08.606Z,92.28
2018-01-17T01:50:08.359Z,92.28
2018-01-17T01:51:08.377Z,92.04
2018-01-17T01:52:08.441Z,92
2018-01-17T01:53:08.402Z,92.04
2018-01-17T01:54:08.880Z,91.85
2018-01-17T01:55:08.710Z,92.19
2018-01-17T01:56:08.441Z,92.19
2018-01-17T01:57:08.455Z,92.19
2018-01-17T01:58:08.468Z,92.19
2018-01-17T01:59:08.481Z,92.28
2018-01-17T02:00:08.764Z,92.09
2018-01-17T02:01:08.510Z,92.47
2018-01-17T02:02:08.527Z,92.14
2018-01-17T02:03:08.794Z,92.04
2018-01-17T02:04:08.812Z,91.95
2018-01-17T02:05:08.820Z,91.76
2018-01-17T02:06:08.837Z,92.19
2018-01-17T02:07:08.895Z,91.38
2018-01-17T02:08:08.603Z,92.14
2018-01-17T02:09:08.873Z,91.71
2018-01-17T02:10:08.888Z,91.52
2018-01-17T02:11:08.952Z,91.52
2018-01-17T02:12:08.658Z,91.52
2018-01-17T02:13:08.670Z,91.81
2018-01-17T02:14:08.940Z,91.71
2018-01-17T02:15:08.953Z,92.19
2018-01-17T02:16:08.709Z,91.76
2018-01-17T02:17:08.724Z,91.85
2018-01-17T02:18:08.736Z,91.9
2018-01-17T02:19:08.978Z,91.76
2018-01-17T02:20:09.018Z,92.04
2018-01-17T02:21:09.004Z,91.38
2018-01-17T02:22:09.066Z,91.71
2018-01-17T02:23:09.032Z,91.24
2018-01-17T02:24:09.050Z,91.95
2018-01-17T02:25:09.058Z,91.76
2018-01-17T02:26:09.073Z,91.19
2018-01-17T02:27:08.834Z,91.24
2018-01-17T02:28:09.098Z,91.19
2018-01-17T02:29:09.114Z,91.28
2018-01-17T02:30:08.875Z,91.57
2018-01-17T02:31:08.914Z,91.52
2018-01-17T02:32:08.899Z,91.05
2018-01-17T02:33:09.216Z,91.24
2018-01-17T02:34:08.927Z,91.24
2018-01-17T02:35:08.943Z,90.95
2018-01-17T02:36:08.953Z,91.71
2018-01-17T02:37:09.272Z,91.14
2018-01-17T02:38:08.992Z,91.43
2018-01-17T02:39:09.001Z,91.24
2018-01-17T02:40:09.009Z,91.57
2018-01-17T02:41:09.020Z,91.33
2018-01-17T02:42:09.034Z,91.47
2018-01-17T02:43:09.050Z,91.52
2018-01-17T02:44:09.316Z,92.04
2018-01-17T02:45:09.325Z,91.43
2018-01-17T02:46:09.345Z,91.28
2018-01-17T02:47:09.354Z,91.09
2018-01-17T02:48:09.368Z,91.19
2018-01-17T02:49:09.380Z,91.38
2018-01-17T02:50:09.395Z,91.47
2018-01-17T02:51:09.418Z,90.72
2018-01-17T02:52:09.493Z,91.38
2018-01-17T02:53:09.432Z,90.81
2018-01-17T02:54:09.452Z,90.91
2018-01-17T02:55:09.467Z,90.34
2018-01-17T02:56:09.223Z,90.62
2018-01-17T02:57:09.236Z,90.43
2018-01-17T02:58:09.250Z,90.43
2018-01-17T02:59:09.516Z,90.43
2018-01-17T03:00:09.278Z,90.43
2018-01-17T03:01:09.540Z,90.43
2018-01-17T03:02:09.304Z,90.43
2018-01-17T03:03:09.571Z,90.53
2018-01-17T03:04:09.583Z,90.24
2018-01-17T03:05:09.599Z,89.58
2018-01-17T03:06:09.358Z,89.86
2018-01-17T03:07:09.774Z,90.43
2018-01-17T03:08:09.640Z,90.34
2018-01-17T03:09:09.400Z,90.15
2018-01-17T03:10:09.414Z,89.96
2018-01-17T03:11:09.677Z,90.34
2018-01-17T03:12:09.439Z,90.05
2018-01-17T03:13:09.705Z,89.58
2018-01-17T03:14:09.469Z,89.77
2018-01-17T03:15:09.737Z,89.96
2018-01-17T03:16:09.745Z,89.77
2018-01-17T03:17:09.507Z,89.86
2018-01-17T03:18:09.770Z,89.77
2018-01-17T03:19:09.785Z,89.2
2018-01-17T03:20:09.549Z,89.77
2018-01-17T03:21:09.563Z,89.77
2018-01-17T03:22:09.630Z,89.77
2018-01-17T03:23:09.588Z,90.15
2018-01-17T03:24:09.854Z,89.39
2018-01-17T03:25:09.622Z,89.11
2018-01-17T03:26:09.882Z,89.11
2018-01-17T03:27:09.997Z,89.96
2018-01-17T03:28:09.660Z,89.67
2018-01-17T03:29:09.928Z,89.29
2018-01-17T03:30:09.939Z,89.29
2018-01-17T03:31:09.953Z,89.96
2018-01-17T03:32:09.712Z,89.11
2018-01-17T03:33:09.726Z,89.39
2018-01-17T03:34:09.991Z,89.11
2018-01-17T03:35:09.754Z,89.2
2018-01-17T03:36:09.766Z,89.11
2018-01-17T03:37:10.088Z,88.54
2018-01-17T03:38:10.044Z,89.11
2018-01-17T03:39:09.809Z,89.11
2018-01-17T03:40:09.822Z,89.2
2018-01-17T03:41:10.086Z,89.01
2018-01-17T03:42:10.100Z,88.44
2018-01-17T03:43:10.128Z,88.16
2018-01-17T03:44:10.131Z,89.01
2018-01-17T03:45:09.890Z,88.63
2018-01-17T03:46:10.154Z,88.54
2018-01-17T03:47:09.918Z,88.25
2018-01-17T03:48:09.932Z,88.63
2018-01-17T03:49:09.972Z,88.25
2018-01-17T03:50:10.213Z,87.87
2018-01-17T03:51:10.227Z,88.16
2018-01-17T03:52:10.286Z,88.16
2018-01-17T03:53:10.249Z,88.16
2018-01-17T03:54:10.265Z,88.25
2018-01-17T03:55:10.026Z,87.97
2018-01-17T03:56:10.039Z,88.35
2018-01-17T03:57:10.337Z,87.87
2018-01-17T03:58:10.071Z,87.97
2018-01-17T03:59:10.332Z,88.16
2018-01-17T04:00:10.364Z,87.77
2018-01-17T04:01:10.358Z,87.77
2018-01-17T04:02:10.374Z,87.59
2018-01-17T04:03:10.391Z,87.59
2018-01-17T04:04:10.399Z,87.59
2018-01-17T04:05:10.414Z,88.06
2018-01-17T04:06:10.430Z,88.25
2018-01-17T04:07:10.187Z,87.59
2018-01-17T04:08:10.455Z,87.68
2018-01-17T04:09:10.218Z,87.97
2018-01-17T04:10:10.484Z,88.16
2018-01-17T04:11:10.497Z,88.16
2018-01-17T04:12:10.260Z,88.35
2018-01-17T04:13:10.524Z,87.87
2018-01-17T04:14:10.540Z,88.25
2018-01-17T04:15:10.300Z,87.87
2018-01-17T04:16:10.314Z,87.87
2018-01-17T04:17:10.326Z,87.87
2018-01-17T04:18:10.595Z,87.87
2018-01-17T04:19:10.362Z,88.16
2018-01-17T04:20:10.620Z,88.35
2018-01-17T04:21:10.381Z,88.44
2018-01-17T04:22:10.645Z,88.35
2018-01-17T04:23:10.665Z,88.35
2018-01-17T04:24:10.677Z,88.35
2018-01-17T04:25:10.439Z,88.35
2018-01-17T04:26:10.454Z,88.35
2018-01-17T04:27:10.535Z,88.16
2018-01-17T04:28:10.737Z,88.35
2018-01-17T04:29:10.747Z,88.44
2018-01-17T04:30:10.508Z,88.35
2018-01-17T04:31:10.522Z,88.25
2018-01-17T04:32:10.535Z,88.44
2018-01-17T04:33:10.548Z,88.06
2018-01-17T04:34:10.822Z,88.54
2018-01-17T04:35:10.578Z,88.25
2018-01-17T04:36:10.849Z,88.35
2018-01-17T04:37:10.857Z,88.54
2018-01-17T04:38:10.870Z,88.35
2018-01-17T04:39:10.886Z,88.35
2018-01-17T04:40:10.898Z,88.54
2018-01-17T04:41:10.658Z,88.54
2018-01-17T04:42:10.926Z,88.44
2018-01-17T04:43:10.686Z,88.54
2018-01-17T04:44:10.952Z,88.16
2018-01-17T04:45:10.968Z,88.25
2018-01-17T04:46:10.983Z,88.54
2018-01-17T04:47:10.743Z,88.92
2018-01-17T04:48:11.008Z,88.48
2018-01-17T04:49:11.026Z,88.54
2018-01-17T04:50:10.784Z,88.82
2018-01-17T04:51:10.798Z,88.73
2018-01-17T04:52:10.814Z,89.39
2018-01-17T04:53:11.079Z,89.86
2018-01-17T04:54:11.093Z,89.77
2018-01-17T04:55:10.854Z,90.15
2018-01-17T04:56:11.119Z,89.86
2018-01-17T04:57:11.134Z,90.24
2018-01-17T04:58:11.149Z,90.53
2018-01-17T04:59:10.910Z,90.24
2018-01-17T05:00:10.924Z,90.24
2018-01-17T05:01:11.190Z,90.62
2018-01-17T05:02:11.202Z,90.24
2018-01-17T05:03:11.220Z,90.43
2018-01-17T05:04:11.229Z,90.15
2018-01-17T05:05:11.245Z,90.15
2018-01-17T05:06:11.258Z,90.62
2018-01-17T05:07:11.274Z,89.96
2018-01-17T05:08:11.033Z,89.86
2018-01-17T05:09:11.048Z,89.48
2018-01-17T05:10:11.312Z,89.96
2018-01-17T05:11:11.324Z,89.96
2018-01-17T05:12:11.348Z,89.48
2018-01-17T05:13:11.101Z,89.2
2018-01-17T05:14:11.367Z,89.39
2018-01-17T05:15:11.383Z,89.29
2018-01-17T05:16:11.142Z,89.01
2018-01-17T05:17:11.158Z,89.2
2018-01-17T05:18:11.426Z,89.11
2018-01-17T05:19:11.434Z,89.96
2018-01-17T05:20:11.451Z,89.2
2018-01-17T05:21:11.468Z,89.01
2018-01-17T05:22:11.225Z,88.92
2018-01-17T05:23:11.242Z,89.2
2018-01-17T05:24:11.520Z,88.35
2018-01-17T05:25:11.520Z,87.97
2018-01-17T05:26:11.281Z,88.54
2018-01-17T05:27:11.545Z,88.35
2018-01-17T05:28:11.307Z,88.35
2018-01-17T05:29:11.323Z,88.54
2018-01-17T05:30:11.589Z,88.35
2018-01-17T05:31:11.603Z,88.35
2018-01-17T05:32:11.381Z,87.97
2018-01-17T05:33:11.690Z,87.68
2018-01-17T05:34:11.642Z,87.68
2018-01-17T05:35:11.407Z,87.68
2018-01-17T05:36:11.671Z,88.06
2018-01-17T05:37:11.431Z,88.25
2018-01-17T05:38:11.748Z,88.16
2018-01-17T05:39:11.460Z,87.68
2018-01-17T05:40:11.726Z,87.49
2018-01-17T05:41:11.752Z,87.3
2018-01-17T05:42:11.755Z,87.68
2018-01-17T05:43:11.775Z,87.3
2018-01-17T05:44:11.781Z,87.21
2018-01-17T05:45:11.542Z,86.93
2018-01-17T05:46:11.808Z,87.02
2018-01-17T05:47:11.570Z,88.25
2018-01-17T05:48:11.583Z,87.3
2018-01-17T05:49:11.850Z,87.68
2018-01-17T05:50:11.610Z,87.21
2018-01-17T05:51:11.876Z,87.59
2018-01-17T05:52:11.639Z,87.21
2018-01-17T05:53:11.953Z,87.12
2018-01-17T05:54:11.916Z,87.3
2018-01-17T05:55:11.679Z,87.12
2018-01-17T05:56:11.944Z,87.3
2018-01-17T05:57:11.709Z,87.4
2018-01-17T05:58:11.720Z,87.21
2018-01-17T05:59:11.742Z,87.4
2018-01-17T06:00:11.750Z,86.83
2018-01-17T06:01:11.761Z,87.12
2018-01-17T06:02:12.027Z,87.02
2018-01-17T06:03:12.044Z,87.02
2018-01-17T06:04:12.054Z,86.93
2018-01-17T06:05:11.823Z,87.12
2018-01-17T06:06:12.085Z,87.21
2018-01-17T06:07:11.844Z,86.93
2018-01-17T06:08:11.907Z,87.21
2018-01-17T06:09:12.125Z,86.64
2018-01-17T06:10:11.886Z,86.55
2018-01-17T06:11:12.148Z,87.21
2018-01-17T06:12:11.911Z,87.21
2018-01-17T06:13:11.925Z,86.55
2018-01-17T06:14:11.939Z,86.83
2018-01-17T06:15:12.203Z,86.64
2018-01-17T06:16:11.966Z,86.93
2018-01-17T06:17:12.237Z,86.74
2018-01-17T06:18:12.244Z,87.02
2018-01-17T06:19:12.260Z,87.12
2018-01-17T06:20:12.021Z,87.21
2018-01-17T06:21:12.039Z,87.12
2018-01-17T06:22:12.051Z,87.49
2018-01-17T06:23:12.368Z,87.21
2018-01-17T06:24:12.080Z,87.02
2018-01-17T06:25:12.368Z,87.21
2018-01-17T06:26:12.359Z,87.02
2018-01-17T06:27:12.372Z,86.55
2018-01-17T06:28:12.386Z,87.21
2018-01-17T06:29:12.170Z,86.93
2018-01-17T06:30:12.417Z,86.93
2018-01-17T06:31:12.177Z,87.12
2018-01-17T06:32:12.442Z,86.93
2018-01-17T06:33:12.460Z,87.02
2018-01-17T06:34:12.468Z,87.3
2018-01-17T06:35:12.483Z,87.68
2018-01-17T06:36:12.503Z,88.16
2018-01-17T06:37:12.510Z,88.06
2018-01-17T06:38:12.575Z,88.63
2018-01-17T06:39:12.540Z,88.92
2018-01-17T06:40:12.300Z,89.58
2018-01-17T06:41:12.316Z,88.87
2018-01-17T06:42:12.327Z,89.25
2018-01-17T06:43:12.638Z,89.06
2018-01-17T06:44:12.591Z,89.15
2018-01-17T06:45:12.621Z,89.72
2018-01-17T06:46:12.658Z,89.34
2018-01-17T06:47:12.398Z,89.53
2018-01-17T06:48:12.661Z,89.53
2018-01-17T06:49:12.676Z,89.82
2018-01-17T06:50:12.691Z,89.34
2018-01-17T06:51:12.448Z,89.06
2018-01-17T06:52:12.714Z,89.25
2018-01-17T06:53:12.527Z,89.53
2018-01-17T06:54:12.491Z,88.87
2018-01-17T06:55:12.503Z,88.96
2018-01-17T06:56:12.768Z,89.15
2018-01-17T06:57:12.782Z,88.87
2018-01-17T06:58:12.802Z,88.87
2018-01-17T06:59:12.556Z,88.96
2018-01-17T07:00:12.822Z,89.44
2018-01-17T07:01:12.585Z,89.72
2018-01-17T07:02:12.600Z,90.1
2018-01-17T07:03:12.863Z,91.19
2018-01-17T07:04:12.623Z,92.05
2018-01-17T07:05:12.655Z,92.94
2018-01-17T07:06:12.658Z,93.61
2018-01-17T07:07:12.662Z,93.7
2018-01-17T07:08:12.726Z,94.08
2018-01-17T07:09:12.942Z,94.08
2018-01-17T07:10:12.951Z,94.27
2018-01-17T07:11:12.714Z,94.84
2018-01-17T07:12:12.986Z,93.89
2018-01-17T07:13:12.991Z,94.37
2018-01-17T07:14:13.057Z,94.65
2018-01-17T07:15:13.016Z,94.84
2018-01-17T07:16:13.032Z,94.27
2018-01-17T07:17:12.790Z,94.18
2018-01-17T07:18:12.800Z,93.89
2018-01-17T07:19:13.066Z,94.46
2018-01-17T07:20:12.835Z,94.08
2018-01-17T07:21:13.088Z,94.46
2018-01-17T07:22:13.100Z,94.56
2018-01-17T07:23:13.264Z,93.89
2018-01-17T07:24:12.872Z,93.8
2018-01-17T07:25:12.887Z,93.89
2018-01-17T07:26:13.149Z,93.8
2018-01-17T07:27:13.162Z,93.8
2018-01-17T07:28:13.175Z,93.7
2018-01-17T07:29:13.205Z,93.89
2018-01-17T07:30:13.203Z,93.8
2018-01-17T07:31:13.210Z,94.08
2018-01-17T07:32:12.970Z,93.8
2018-01-17T07:33:12.984Z,93.7
2018-01-17T07:34:13.245Z,93.7
2018-01-17T07:35:13.006Z,93.7
2018-01-17T07:36:13.293Z,93.8
2018-01-17T07:37:13.034Z,93.7
2018-01-17T07:38:13.347Z,93.7
2018-01-17T07:39:13.056Z,93.51
2018-01-17T07:40:13.322Z,93.51
2018-01-17T07:41:13.081Z,93.7
2018-01-17T07:42:13.094Z,93.42
2018-01-17T07:43:13.106Z,93.7
2018-01-17T07:44:13.373Z,93.8
2018-01-17T07:45:13.131Z,93.8
2018-01-17T07:46:13.393Z,93.23
2018-01-17T07:47:13.155Z,92.85
2018-01-17T07:48:13.268Z,92.85
2018-01-17T07:49:13.464Z,92.66
2018-01-17T07:50:13.191Z,92.76
2018-01-17T07:51:13.457Z,93.23
2018-01-17T07:52:13.469Z,92.94
2018-01-17T07:53:13.533Z,92.66
2018-01-17T07:54:13.492Z,92.66
2018-01-17T07:55:13.525Z,93.13
2018-01-17T07:56:13.611Z,92.94
2018-01-17T07:57:13.275Z,92.57
2018-01-17T07:58:13.541Z,92.85
2018-01-17T07:59:13.552Z,92.85
2018-01-17T08:00:13.312Z,92.47
2018-01-17T08:01:13.574Z,92.66
2018-01-17T08:02:13.592Z,92.85
2018-01-17T08:03:13.347Z,92.94
2018-01-17T08:04:13.613Z,92.85
2018-01-17T08:05:13.624Z,93.13
2018-01-17T08:06:13.386Z,93.23
2018-01-17T08:07:13.648Z,93.04
2018-01-17T08:08:13.410Z,92.57
2018-01-17T08:09:13.425Z,93.13
2018-01-17T08:10:13.455Z,92.66
2018-01-17T08:11:13.701Z,92.85
2018-01-17T08:12:13.707Z,93.32
2018-01-17T08:13:13.725Z,93.7
2018-01-17T08:14:13.734Z,92.76
2018-01-17T08:15:13.747Z,93.32
2018-01-17T08:16:13.505Z,93.7
2018-01-17T08:17:13.518Z,93.42
2018-01-17T08:18:13.784Z,93.7
2018-01-17T08:19:13.792Z,92.94
2018-01-17T08:20:13.805Z,93.13
2018-01-17T08:21:13.567Z,93.7
2018-01-17T08:22:13.584Z,93.42
2018-01-17T08:23:13.847Z,92.76
2018-01-17T08:24:13.853Z,93.04
2018-01-17T08:25:13.868Z,92.8
2018-01-17T08:26:13.894Z,93.13
2018-01-17T08:27:13.891Z,93.89
2018-01-17T08:28:13.903Z,93.04
2018-01-17T08:29:13.922Z,93.18
2018-01-17T08:30:13.932Z,92.61
2018-01-17T08:31:13.938Z,92.94
2018-01-17T08:32:13.948Z,93.23
2018-01-17T08:33:13.964Z,92.85
2018-01-17T08:34:13.722Z,92.94
2018-01-17T08:35:13.984Z,92.66
2018-01-17T08:36:13.998Z,92.57
2018-01-17T08:37:13.762Z,92.85
2018-01-17T08:38:14.021Z,92.47
2018-01-17T08:39:14.032Z,92.29
2018-01-17T08:40:14.045Z,92.76
2018-01-17T08:41:14.063Z,92.76
2018-01-17T08:42:14.070Z,92.94
2018-01-17T08:43:14.078Z,93.04
2018-01-17T08:44:14.093Z,92.94
2018-01-17T08:45:13.853Z,93.04
2018-01-17T08:46:13.864Z,92.47
2018-01-17T08:47:13.877Z,92.94
2018-01-17T08:48:14.139Z,92.47
2018-01-17T08:49:14.150Z,92.66
2018-01-17T08:50:13.912Z,92
2018-01-17T08:51:13.924Z,91.91
2018-01-17T08:52:14.210Z,92.19
2018-01-17T08:53:13.950Z,92
2018-01-17T08:54:13.959Z,91.72
2018-01-17T08:55:13.973Z,91.81
2018-01-17T08:56:13.985Z,92.29
2018-01-17T08:57:14.253Z,92
2018-01-17T08:58:14.262Z,92.38
2018-01-17T08:59:14.276Z,91.34
2018-01-17T09:00:14.034Z,91.81
2018-01-17T09:01:14.304Z,91.43
2018-01-17T09:02:14.059Z,91.43
2018-01-17T09:03:14.321Z,91.62
2018-01-17T09:04:14.082Z,91.72
2018-01-17T09:05:14.098Z,91.62
2018-01-17T09:06:14.109Z,92
2018-01-17T09:07:14.369Z,91.91
2018-01-17T09:08:14.131Z,92.76
2018-01-17T09:09:14.142Z,91.62
2018-01-17T09:10:14.412Z,91.15
2018-01-17T09:11:14.166Z,92.29
2018-01-17T09:12:14.431Z,91.15
2018-01-17T09:13:14.444Z,91.62
2018-01-17T09:14:14.220Z,91.81
2018-01-17T09:15:14.216Z,91.24
2018-01-17T09:16:14.478Z,91.81
2018-01-17T09:17:14.239Z,91.53
2018-01-17T09:18:14.504Z,91.62
2018-01-17T09:19:14.515Z,91.15
2018-01-17T09:20:14.530Z,91.15
2018-01-17T09:21:14.539Z,90.86
2018-01-17T09:22:14.551Z,91.57
2018-01-17T09:23:14.575Z,90.86
2018-01-17T09:24:14.577Z,90.67
2018-01-17T09:25:14.591Z,90.67
2018-01-17T09:26:14.603Z,91.15
2018-01-17T09:27:14.665Z,90.48
2018-01-17T09:28:14.625Z,90.48
2018-01-17T09:29:14.640Z,91.05
2018-01-17T09:30:14.401Z,89.82
2018-01-17T09:31:14.414Z,89.06
2018-01-17T09:32:14.775Z,90.2
2018-01-17T09:33:14.690Z,89.63
2018-01-17T09:34:14.708Z,90.3
2018-01-17T09:35:14.716Z,89.06
2018-01-17T09:36:14.737Z,88.78
2018-01-17T09:37:14.487Z,88.78
2018-01-17T09:38:14.752Z,88.68
2018-01-17T09:39:14.766Z,89.2
2018-01-17T09:40:14.785Z,88.82
2018-01-17T09:41:14.543Z,87.88
2018-01-17T09:42:14.856Z,87.98
2018-01-17T09:43:14.816Z,88.45
2018-01-17T09:44:14.827Z,88.07
2018-01-17T09:45:14.844Z,87.69
2018-01-17T09:46:14.855Z,88.07
2018-01-17T09:47:14.623Z,87.88
2018-01-17T09:48:14.884Z,88.17
2018-01-17T09:49:14.643Z,87.98
2018-01-17T09:50:14.908Z,88.26
2018-01-17T09:51:14.920Z,88.35
2018-01-17T09:52:14.933Z,88.17
2018-01-17T09:53:14.694Z,88.35
2018-01-17T09:54:14.706Z,88.07
2018-01-17T09:55:14.970Z,88.26
2018-01-17T09:56:14.984Z,88.17
2018-01-17T09:57:15.049Z,87.02
2018-01-17T09:58:15.010Z,87.59
2018-01-17T09:59:15.027Z,86.89
2018-01-17T10:00:15.035Z,87.93
2018-01-17T10:01:15.046Z,87.46
2018-01-17T10:02:15.063Z,87.17
2018-01-17T10:03:15.075Z,87.55
2018-01-17T10:04:14.836Z,87.55
2018-01-17T10:05:15.100Z,87.55
2018-01-17T10:06:14.860Z,86.89
2018-01-17T10:07:15.129Z,87.27
2018-01-17T10:08:14.886Z,87.65
2018-01-17T10:09:15.151Z,86.79
2018-01-17T10:10:14.912Z,87.27
2018-01-17T10:11:14.926Z,87.46
2018-01-17T10:12:15.238Z,87.36
2018-01-17T10:13:15.204Z,86.98
2018-01-17T10:14:15.214Z,87.74
2018-01-17T10:15:15.231Z,87.21
2018-01-17T10:16:14.988Z,87.59
2018-01-17T10:17:15.004Z,86.83
2018-01-17T10:18:15.267Z,86.74
2018-01-17T10:19:15.032Z,85.13
2018-01-17T10:20:15.044Z,85.13
2018-01-17T10:21:15.308Z,83.56
2018-01-17T10:22:15.323Z,83.75
2018-01-17T10:23:15.342Z,82.9
2018-01-17T10:24:15.354Z,83.18
2018-01-17T10:25:15.378Z,82.43
2018-01-17T10:26:15.386Z,82.05
2018-01-17T10:27:15.450Z,81.62
2018-01-17T10:28:15.420Z,81.14
2018-01-17T10:29:15.437Z,80.19
2018-01-17T10:30:15.197Z,80.19
2018-01-17T10:31:15.214Z,80.86
2018-01-17T10:32:15.329Z,80.19
2018-01-17T10:33:15.497Z,79.63
2018-01-17T10:34:15.266Z,79.53
2018-01-17T10:35:15.546Z,79.34
2018-01-17T10:36:15.300Z,79.1
2018-01-17T10:37:15.571Z,78.72
2018-01-17T10:38:15.336Z,78.24
2018-01-17T10:39:15.355Z,77.48
2018-01-17T10:40:15.373Z,77.58
2018-01-17T10:41:15.391Z,76.76
2018-01-17T10:42:15.713Z,77.33
2018-01-17T10:43:15.683Z,75.53
2018-01-17T10:44:15.449Z,74.87
2018-01-17T10:45:15.718Z,73.35
2018-01-17T10:46:15.740Z,74.58
2018-01-17T10:47:15.506Z,75.53
2018-01-17T10:48:15.779Z,73.63
2018-01-17T10:49:15.794Z,74.96
2018-01-17T10:50:15.830Z,72.63
2018-01-17T10:51:15.838Z,72.02
2018-01-17T10:52:15.906Z,72.02
2018-01-17T10:53:15.622Z,72.59
2018-01-17T10:54:15.642Z,72.3
2018-01-17T10:55:15.662Z,72.21
2018-01-17T10:56:15.933Z,73.72
2018-01-17T10:57:16.003Z,72.88
2018-01-17T10:58:15.718Z,71.83
2018-01-17T10:59:15.737Z,72.49
2018-01-17T11:00:16.006Z,73.88
2018-01-17T11:01:15.773Z,74.35
2018-01-17T11:02:16.040Z,73.79
2018-01-17T11:03:16.060Z,74.26
2018-01-17T11:04:16.079Z,75.11
2018-01-17T11:05:16.116Z,74.35
2018-01-17T11:06:16.110Z,75.4
2018-01-17T11:07:16.127Z,75.49
2018-01-17T11:08:15.889Z,74.26
2018-01-17T11:09:16.161Z,74.26
2018-01-17T11:10:15.931Z,75.26
2018-01-17T11:11:16.193Z,76.4
2018-01-17T11:12:16.007Z,76.97
2018-01-17T11:13:16.224Z,77.16
2018-01-17T11:14:16.242Z,77.54
2018-01-17T11:15:16.005Z,77.45
2018-01-17T11:16:16.273Z,77.25
2018-01-17T11:17:16.306Z,77.73
2018-01-17T11:18:16.049Z,77.64
2018-01-17T11:19:16.316Z,77.73
2018-01-17T11:20:16.333Z,76.87
2018-01-17T11:21:16.102Z,77.64
2018-01-17T11:22:16.361Z,77.54
2018-01-17T11:23:16.126Z,77.73
2018-01-17T11:24:16.395Z,78.11
2018-01-17T11:25:16.166Z,77.73
2018-01-17T11:26:16.182Z,77.73
2018-01-17T11:27:16.437Z,78.58
2018-01-17T11:28:16.450Z,78.2
2018-01-17T11:29:16.516Z,78.39
2018-01-17T11:30:16.482Z,78.02
2018-01-17T11:31:16.246Z,77.64
2018-01-17T11:32:16.514Z,77.73
2018-01-17T11:33:16.274Z,78.49
2018-01-17T11:34:16.339Z,79.25
2018-01-17T11:35:16.307Z,79.34
2018-01-17T11:36:16.575Z,78.43
2018-01-17T11:37:16.587Z,77.67
2018-01-17T11:38:16.607Z,77.67
2018-01-17T11:39:16.466Z,77.73
2018-01-17T11:40:16.379Z,77.92
2018-01-17T11:41:16.644Z,78.49
2018-01-17T11:42:16.409Z,79.72
2018-01-17T11:43:16.675Z,80.1
2018-01-17T11:44:16.740Z,81.1
2018-01-17T11:45:16.703Z,82.05
2018-01-17T11:46:16.720Z,82.52
2018-01-17T11:47:16.736Z,82.62
2018-01-17T11:48:16.749Z,83
2018-01-17T11:49:16.510Z,82.9
2018-01-17T11:50:16.525Z,83.09
2018-01-17T11:51:16.791Z,83.85
2018-01-17T11:52:16.552Z,83.56
2018-01-17T11:53:16.567Z,84.23
2018-01-17T11:54:16.581Z,85.08
2018-01-17T11:55:16.594Z,85.89
2018-01-17T11:56:16.859Z,86.83
2018-01-17T11:57:16.622Z,88.21
2018-01-17T11:58:16.886Z,90.48
2018-01-17T11:59:16.698Z,90.3
2018-01-17T12:00:16.912Z,90.67
2018-01-17T12:01:16.676Z,91.24
2018-01-17T12:02:16.940Z,89.63
2018-01-17T12:03:16.700Z,89.97
2018-01-17T12:04:16.972Z,90.44
2018-01-17T12:05:16.729Z,89.5
2018-01-17T12:06:16.740Z,89.69
2018-01-17T12:07:17.005Z,89.78
2018-01-17T12:08:16.766Z,90.44
2018-01-17T12:09:16.778Z,91.2
2018-01-17T12:10:17.040Z,91.1
2018-01-17T12:11:17.052Z,91.01
2018-01-17T12:12:17.068Z,91.48
2018-01-17T12:13:16.825Z,91.67
2018-01-17T12:14:16.915Z,91.39
2018-01-17T12:15:17.104Z,92.33
2018-01-17T12:16:17.117Z,91.86
2018-01-17T12:17:17.124Z,91.96
2018-01-17T12:18:16.888Z,92.71
2018-01-17T12:19:17.158Z,91.96
2018-01-17T12:20:17.164Z,92.14
2018-01-17T12:21:17.179Z,91.58
2018-01-17T12:22:17.205Z,91.2
2018-01-17T12:23:17.199Z,92.05
2018-01-17T12:24:17.255Z,90.82
2018-01-17T12:25:16.968Z,91.2
2018-01-17T12:26:17.238Z,90.63
2018-01-17T12:27:17.248Z,90.25
2018-01-17T12:28:17.257Z,90.25
2018-01-17T12:29:17.331Z,89.73
2018-01-17T12:30:17.284Z,89.63
2018-01-17T12:31:17.294Z,89.82
2018-01-17T12:32:17.055Z,88.68
2018-01-17T12:33:17.320Z,88.21
2018-01-17T12:34:17.333Z,88.02
2018-01-17T12:35:17.092Z,88.12
2018-01-17T12:36:17.361Z,86.18
2018-01-17T12:37:17.375Z,85.61
2018-01-17T12:38:17.390Z,86.6
2018-01-17T12:39:17.409Z,84.04
2018-01-17T12:40:17.423Z,82.28
2018-01-17T12:41:17.434Z,81.9
2018-01-17T12:42:17.448Z,82.43
2018-01-17T12:43:17.213Z,82.62
2018-01-17T12:44:17.529Z,82.14
2018-01-17T12:45:17.242Z,82.33
2018-01-17T12:46:17.518Z,83.28
2018-01-17T12:47:17.529Z,82.33
2018-01-17T12:48:17.291Z,82.14
2018-01-17T12:49:17.563Z,82.62
2018-01-17T12:50:17.580Z,82.43
2018-01-17T12:51:17.590Z,83
2018-01-17T12:52:17.357Z,82.14
2018-01-17T12:53:17.627Z,82.43
2018-01-17T12:54:17.389Z,82.52
2018-01-17T12:55:17.656Z,82.33